createdAt,value
2022-11-01T00:02:05.833Z,4.13
2022-11-01T00:04:34.372Z,3.70
2022-11-01T00:07:02.431Z,4.00
2022-11-01T00:09:30.827Z,4.07
2022-11-01T00:11:58.833Z,3.78
2022-11-01T00:14:28.831Z,3.45
2022-11-01T00:16:58.219Z,3.70
2022-11-01T00:19:26.217Z,3.95
2022-11-01T00:21:56.797Z,3.58
2022-11-01T00:24:25.095Z,3.90
2022-11-01T00:26:53.067Z,3.60
2022-11-01T00:29:21.939Z,3.35
2022-11-01T00:31:49.834Z,3.22
2022-11-01T00:34:20.206Z,3.15
2022-11-01T00:39:17.167Z,2.92
2022-11-01T00:41:45.191Z,3.67
2022-11-01T00:44:13.090Z,3.33
2022-11-01T00:46:41.899Z,3.67
2022-11-01T00:49:09.793Z,3.40
2022-11-01T00:51:39.983Z,3.30
2022-11-01T00:54:07.886Z,3.80
2022-11-01T00:59:06.237Z,3.33
2022-11-01T01:01:34.469Z,3.63
2022-11-01T01:04:03.064Z,3.20
2022-11-01T01:06:31.038Z,3.08
2022-11-01T01:09:01.460Z,2.80
2022-11-01T01:11:30.112Z,3.10
2022-11-01T01:13:58.128Z,3.40
2022-11-01T01:16:27.226Z,3.38
2022-11-01T01:18:56.497Z,3.10
2022-11-01T01:21:24.442Z,3.50
2022-11-01T01:23:55.116Z,3.35
2022-11-01T01:26:24.452Z,2.85
2022-11-01T01:28:55.075Z,3.00
2022-11-01T01:31:23.793Z,3.00
2022-11-01T01:33:51.684Z,3.80
2022-11-01T01:36:20.080Z,2.83
2022-11-01T01:38:48.369Z,3.17
2022-11-01T01:41:33.535Z,3.00
2022-11-01T01:44:03.890Z,2.80
2022-11-01T01:46:31.775Z,3.13
2022-11-01T01:49:00.733Z,3.10
2022-11-01T01:51:31.533Z,3.20
2022-11-01T01:53:59.866Z,3.15
2022-11-01T01:56:33.377Z,2.92
2022-11-01T01:59:06.347Z,2.85
2022-11-01T02:01:38.421Z,2.95
2022-11-01T02:04:11.348Z,3.10
2022-11-01T02:06:41.686Z,2.92
2022-11-01T02:09:11.008Z,2.83
2022-11-01T02:14:09.045Z,2.58
2022-11-01T02:16:48.479Z,3.47
2022-11-01T02:20:00.941Z,4.03
2022-11-01T02:25:32.204Z,3.60
2022-11-01T02:28:17.409Z,3.22
2022-11-01T02:30:54.671Z,3.15
2022-11-01T02:33:31.252Z,3.42
2022-11-01T02:36:04.934Z,3.58
2022-11-01T02:38:39.998Z,3.10
2022-11-01T02:41:13.109Z,3.50
2022-11-01T02:43:49.680Z,3.38
2022-11-01T02:46:37.832Z,3.97
2022-11-01T02:49:12.469Z,3.25
2022-11-01T02:51:40.971Z,3.08
2022-11-01T02:54:11.416Z,3.05
2022-11-01T02:56:40.315Z,3.40
2022-11-01T02:59:17.536Z,3.30
2022-11-01T03:01:49.063Z,3.42
2022-11-01T03:04:19.457Z,3.28
2022-11-01T03:09:19.637Z,3.45
2022-11-01T03:11:55.459Z,3.30
2022-11-01T03:14:29.384Z,3.42
2022-11-01T03:17:01.464Z,3.25
2022-11-01T03:19:46.922Z,3.20
2022-11-01T03:22:20.161Z,3.65
2022-11-01T03:24:53.742Z,3.78
2022-11-01T03:27:28.450Z,3.60
2022-11-01T03:30:01.403Z,3.00
2022-11-01T03:32:34.916Z,3.42
2022-11-01T03:35:11.256Z,3.13
2022-11-01T03:37:42.161Z,2.92
2022-11-01T03:40:14.515Z,3.42
2022-11-01T03:42:45.948Z,3.25
2022-11-01T03:45:16.842Z,3.22
2022-11-01T03:47:44.850Z,3.17
2022-11-01T03:50:16.136Z,3.50
2022-11-01T03:52:44.681Z,3.92
2022-11-01T03:55:19.283Z,3.72
2022-11-01T03:57:49.263Z,3.60
2022-11-01T04:00:19.113Z,3.90
2022-11-01T04:05:17.998Z,3.83
2022-11-01T04:07:46.776Z,3.38
2022-11-01T04:10:15.830Z,3.72
2022-11-01T04:12:46.972Z,3.90
2022-11-01T04:15:33.806Z,3.28
2022-11-01T04:18:22.384Z,3.63
2022-11-01T04:20:52.924Z,3.78
2022-11-01T04:23:21.840Z,4.32
2022-11-01T04:25:50.190Z,4.22
2022-11-01T04:28:18.220Z,4.38
2022-11-01T04:30:46.167Z,3.70
2022-11-01T04:33:15.139Z,3.70
2022-11-01T04:35:43.006Z,3.75
2022-11-01T04:38:13.829Z,3.72
2022-11-01T04:40:43.510Z,4.05
2022-11-01T04:43:12.362Z,3.67
2022-11-01T04:45:40.897Z,3.42
2022-11-01T04:48:13.123Z,3.92
2022-11-01T04:50:41.753Z,3.90
2022-11-01T04:53:10.364Z,3.10
2022-11-01T04:55:40.762Z,3.60
2022-11-01T04:58:10.794Z,3.35
2022-11-01T05:00:40.302Z,3.63
2022-11-01T05:03:09.065Z,4.25
2022-11-01T05:05:39.688Z,3.22
2022-11-01T05:08:09.748Z,3.22
2022-11-01T05:10:42.437Z,3.22
2022-11-01T05:13:12.142Z,3.80
2022-11-01T05:15:53.448Z,4.15
2022-11-01T05:18:29.798Z,3.10
2022-11-01T05:20:58.156Z,3.50
2022-11-01T05:23:27.022Z,3.55
2022-11-01T05:25:57.686Z,3.40
2022-11-01T05:28:26.668Z,3.63
2022-11-01T05:30:54.598Z,3.47
2022-11-01T05:33:23.022Z,3.55
2022-11-01T05:35:53.918Z,3.75
2022-11-01T05:38:22.317Z,3.63
2022-11-01T05:40:50.554Z,3.38
2022-11-01T05:43:20.759Z,3.13
2022-11-01T05:45:48.673Z,3.85
2022-11-01T05:48:17.052Z,4.70
2022-11-01T05:50:45.633Z,3.70
2022-11-01T05:55:43.453Z,3.17
2022-11-01T05:58:12.572Z,3.72
2022-11-01T06:00:41.866Z,3.78
2022-11-01T06:03:10.996Z,3.08
2022-11-01T06:05:39.548Z,3.70
2022-11-01T06:08:08.322Z,3.80
2022-11-01T06:10:36.664Z,3.17
2022-11-01T06:13:04.917Z,3.33
2022-11-01T06:15:35.660Z,3.30
2022-11-01T06:18:09.173Z,3.40
2022-11-01T06:23:10.832Z,3.30
2022-11-01T06:25:38.937Z,4.03
2022-11-01T06:28:06.811Z,3.40
2022-11-01T06:30:35.680Z,3.60
2022-11-01T06:33:04.058Z,3.22
2022-11-01T06:35:34.653Z,3.30
2022-11-01T06:38:03.812Z,2.97
2022-11-01T06:40:31.736Z,3.60
2022-11-01T06:43:01.834Z,3.03
2022-11-01T06:45:30.451Z,3.08
2022-11-01T06:47:59.058Z,2.75
2022-11-01T06:50:28.179Z,2.63
2022-11-01T06:52:59.384Z,2.90
2022-11-01T06:55:27.721Z,3.17
2022-11-01T06:57:56.473Z,3.13
2022-11-01T07:00:26.575Z,3.53
2022-11-01T07:03:00.160Z,2.97
2022-11-01T07:05:31.664Z,3.00
2022-11-01T07:08:05.322Z,2.58
2022-11-01T07:10:34.520Z,2.97
2022-11-01T07:13:03.690Z,2.78
2022-11-01T07:15:32.561Z,3.47
2022-11-01T07:18:02.892Z,2.70
2022-11-01T07:20:32.204Z,2.53
2022-11-01T07:23:01.644Z,2.63
2022-11-01T07:25:33.179Z,2.67
2022-11-01T07:28:01.487Z,3.13
2022-11-01T07:30:29.829Z,2.47
2022-11-01T07:32:58.984Z,3.08
2022-11-01T07:35:28.348Z,2.60
2022-11-01T07:37:58.186Z,2.70
2022-11-01T07:40:29.132Z,2.38
2022-11-01T07:43:00.200Z,2.70
2022-11-01T07:45:30.752Z,2.60
2022-11-01T07:50:28.835Z,2.28
2022-11-01T07:53:03.810Z,2.55
2022-11-01T07:55:32.200Z,2.17
2022-11-01T07:58:01.848Z,2.17
2022-11-01T08:00:32.210Z,3.00
2022-11-01T08:03:04.655Z,2.28
2022-11-01T08:05:34.651Z,2.47
2022-11-01T08:08:03.286Z,2.45
2022-11-01T08:10:32.498Z,2.83
2022-11-01T08:13:07.464Z,2.63
2022-11-01T08:15:35.854Z,2.50
2022-11-01T08:18:04.300Z,2.75
2022-11-01T08:20:33.501Z,2.30
2022-11-01T08:23:01.729Z,2.38
2022-11-01T08:25:30.653Z,2.95
2022-11-01T08:28:04.483Z,2.30
2022-11-01T08:30:34.517Z,2.30
2022-11-01T08:33:04.585Z,3.00
2022-11-01T08:35:33.585Z,2.30
2022-11-01T08:38:03.831Z,2.10
2022-11-01T08:43:01.257Z,1.00
2022-11-01T08:45:30.021Z,1.83
2022-11-01T08:48:01.307Z,1.47
2022-11-01T08:50:29.668Z,1.30
2022-11-01T08:52:57.626Z,1.25
2022-11-01T08:55:27.111Z,1.20
2022-11-01T08:57:55.051Z,1.05
2022-11-01T09:00:23.705Z,0.75
2022-11-01T09:02:52.380Z,0.80
2022-11-01T09:05:22.193Z,0.70
2022-11-01T09:07:50.390Z,0.60
2022-11-01T09:10:19.811Z,0.85
2022-11-01T09:12:47.724Z,0.75
2022-11-01T09:15:16.173Z,1.65
2022-11-01T09:17:44.552Z,0.70
2022-11-01T09:20:12.966Z,0.80
2022-11-01T09:22:42.263Z,0.93
2022-11-01T09:25:13.128Z,0.75
2022-11-01T09:27:41.055Z,0.70
2022-11-01T09:30:09.881Z,0.57
2022-11-01T09:32:38.870Z,0.52
2022-11-01T09:35:09.003Z,0.70
2022-11-01T09:37:37.380Z,0.40
2022-11-01T09:40:08.759Z,0.77
2022-11-01T09:42:42.112Z,0.50
2022-11-01T09:45:19.073Z,0.60
2022-11-01T09:47:51.326Z,0.50
2022-11-01T09:50:25.297Z,0.52
2022-11-01T09:52:54.922Z,0.75
2022-11-01T09:55:35.751Z,0.52
2022-11-01T09:58:10.891Z,0.47
2022-11-01T10:00:46.215Z,0.40
2022-11-01T10:03:29.266Z,0.85
2022-11-01T10:06:04.921Z,0.70
2022-11-01T10:08:43.695Z,0.60
2022-11-01T10:11:35.751Z,0.88
2022-11-01T10:14:12.221Z,0.90
2022-11-01T10:16:42.572Z,0.55
2022-11-01T10:19:14.775Z,0.50
2022-11-01T10:21:48.328Z,1.02
2022-11-01T10:24:23.689Z,0.70
2022-11-01T10:26:58.066Z,0.60
2022-11-01T10:29:35.117Z,1.70
2022-11-01T10:32:06.353Z,0.75
2022-11-01T10:34:39.447Z,0.70
2022-11-01T10:37:16.756Z,0.70
2022-11-01T10:39:56.205Z,1.10
2022-11-01T10:42:30.088Z,1.05
2022-11-01T10:45:01.477Z,0.73
2022-11-01T10:47:30.619Z,0.80
2022-11-01T10:50:07.641Z,0.80
2022-11-01T10:52:48.267Z,0.70
2022-11-01T10:57:54.270Z,0.77
2022-11-01T11:00:23.670Z,0.90
2022-11-01T11:02:56.863Z,0.88
2022-11-01T11:05:27.163Z,1.00
2022-11-01T11:07:57.914Z,0.80
2022-11-01T11:10:29.851Z,0.80
2022-11-01T11:13:04.782Z,1.00
2022-11-01T11:15:45.664Z,1.20
2022-11-01T11:18:26.259Z,0.90
2022-11-01T11:20:57.419Z,1.10
2022-11-01T11:23:29.919Z,1.00
2022-11-01T11:26:03.048Z,1.23
2022-11-01T11:28:39.225Z,1.05
2022-11-01T11:31:15.122Z,0.70
2022-11-01T11:33:51.795Z,0.80
2022-11-01T11:36:28.352Z,1.13
2022-11-01T11:38:58.574Z,0.90
2022-11-01T11:41:28.893Z,0.95
2022-11-01T11:43:59.394Z,1.40
2022-11-01T11:46:27.589Z,0.90
2022-11-01T11:48:59.574Z,1.23
2022-11-01T11:51:29.782Z,1.27
2022-11-01T11:54:21.638Z,0.80
2022-11-01T11:56:52.805Z,1.00
2022-11-01T11:59:29.325Z,1.33
2022-11-01T12:02:00.192Z,1.20
2022-11-01T12:04:37.819Z,1.23
2022-11-01T12:07:07.693Z,0.98
2022-11-01T12:09:47.062Z,1.30
2022-11-01T12:12:20.226Z,0.95
2022-11-01T12:14:51.295Z,1.00
2022-11-01T12:17:29.293Z,1.60
2022-11-01T12:20:02.917Z,1.08
2022-11-01T12:22:34.237Z,2.45
2022-11-01T12:25:08.824Z,1.33
2022-11-01T12:27:37.944Z,1.42
2022-11-01T12:30:12.652Z,1.20
2022-11-01T12:32:50.748Z,1.00
2022-11-01T12:35:34.991Z,0.95
2022-11-01T12:38:33.462Z,1.08
2022-11-01T12:41:14.371Z,1.10
2022-11-01T12:43:53.808Z,1.10
2022-11-01T12:48:58.865Z,1.20
2022-11-01T12:51:31.353Z,1.00
2022-11-01T12:54:06.007Z,1.30
2022-11-01T12:56:34.923Z,1.10
2022-11-01T12:59:02.881Z,1.05
2022-11-01T13:01:39.754Z,1.15
2022-11-01T13:04:21.289Z,1.20
2022-11-01T13:07:08.171Z,1.40
2022-11-01T13:09:47.230Z,1.05
2022-11-01T13:12:25.951Z,0.90
2022-11-01T13:15:01.803Z,1.40
2022-11-01T13:17:40.244Z,1.20
2022-11-01T13:20:23.217Z,1.20
2022-11-01T13:22:57.350Z,1.10
2022-11-01T13:25:34.476Z,1.10
2022-11-01T13:28:16.969Z,1.98
2022-11-01T13:30:53.607Z,0.90
2022-11-01T13:33:29.937Z,1.10
2022-11-01T13:36:02.401Z,0.70
2022-11-01T13:38:38.003Z,1.23
2022-11-01T13:41:19.516Z,1.70
2022-11-01T13:43:53.833Z,0.88
2022-11-01T13:46:42.753Z,0.75
2022-11-01T13:49:44.027Z,0.90
2022-11-01T13:52:19.405Z,1.17
2022-11-01T13:54:54.459Z,1.20
2022-11-01T13:57:25.961Z,1.05
2022-11-01T13:59:58.369Z,0.90
2022-11-01T14:02:54.584Z,1.52
2022-11-01T14:05:23.832Z,0.80
2022-11-01T14:08:26.832Z,0.98
2022-11-01T14:10:56.477Z,1.02
2022-11-01T14:13:37.730Z,1.10
2022-11-01T14:16:25.326Z,1.17
2022-11-01T14:19:20.881Z,0.95
2022-11-01T14:21:56.116Z,0.68
2022-11-01T14:24:35.309Z,0.82
2022-11-01T14:27:24.800Z,1.00
2022-11-01T14:29:54.617Z,1.13
2022-11-01T14:32:26.478Z,1.50
2022-11-01T14:35:01.395Z,0.90
2022-11-01T14:37:36.772Z,1.10
2022-11-01T14:40:22.254Z,1.40
2022-11-01T14:42:55.456Z,0.82
2022-11-01T14:45:32.151Z,0.95
2022-11-01T14:48:07.734Z,0.93
2022-11-01T14:50:45.619Z,0.82
2022-11-01T14:53:24.135Z,0.68
2022-11-01T14:56:07.147Z,1.17
2022-11-01T14:58:35.849Z,0.90
2022-11-01T15:01:09.527Z,0.82
2022-11-01T15:03:38.126Z,1.00
2022-11-01T15:06:17.342Z,0.75
2022-11-01T15:08:47.243Z,0.80
2022-11-01T15:11:17.324Z,1.00
2022-11-01T15:13:47.478Z,1.55
2022-11-01T15:16:23.410Z,1.65
2022-11-01T15:18:55.923Z,1.00
2022-11-01T15:21:30.630Z,0.93
2022-11-01T15:24:00.941Z,1.65
2022-11-01T15:26:33.161Z,0.95
2022-11-01T15:29:04.358Z,1.00
2022-11-01T15:31:35.828Z,0.70
2022-11-01T15:34:07.115Z,1.00
2022-11-01T15:36:37.193Z,1.45
2022-11-01T15:39:18.165Z,1.08
2022-11-01T15:41:48.676Z,0.80
2022-11-01T15:44:21.827Z,1.05
2022-11-01T15:46:52.955Z,1.30
2022-11-01T15:49:24.676Z,0.90
2022-11-01T15:51:55.970Z,0.80
2022-11-01T15:54:34.849Z,1.20
2022-11-01T15:57:11.764Z,1.00
2022-11-01T15:59:51.304Z,1.30
2022-11-01T16:02:26.024Z,0.90
2022-11-01T16:04:54.670Z,1.00
2022-11-01T16:07:23.517Z,0.63
2022-11-01T16:09:55.835Z,1.00
2022-11-01T16:12:27.819Z,0.77
2022-11-01T16:14:59.848Z,1.08
2022-11-01T16:17:34.874Z,0.77
2022-11-01T16:20:05.838Z,0.90
2022-11-01T16:22:38.350Z,1.15
2022-11-01T16:25:20.428Z,0.80
2022-11-01T16:28:02.945Z,0.98
2022-11-01T16:30:51.001Z,0.77
2022-11-01T16:33:29.606Z,1.30
2022-11-01T16:35:59.764Z,1.00
2022-11-01T16:38:42.029Z,0.90
2022-11-01T16:41:17.934Z,1.00
2022-11-01T16:43:48.789Z,0.90
2022-11-01T16:46:20.290Z,1.27
2022-11-01T16:48:54.982Z,1.45
2022-11-01T16:51:27.026Z,1.00
2022-11-01T16:53:55.870Z,0.70
2022-11-01T16:56:42.757Z,1.00
2022-11-01T16:59:24.358Z,1.23
2022-11-01T17:01:55.841Z,1.10
2022-11-01T17:04:24.117Z,0.85
2022-11-01T17:06:52.345Z,1.00
2022-11-01T17:09:23.401Z,0.90
2022-11-01T17:11:53.630Z,0.90
2022-11-01T17:14:23.757Z,1.23
2022-11-01T17:16:53.216Z,1.20
2022-11-01T17:19:26.475Z,0.95
2022-11-01T17:21:55.749Z,0.80
2022-11-01T17:24:27.610Z,0.80
2022-11-01T17:26:58.898Z,0.80
2022-11-01T17:29:28.705Z,0.85
2022-11-01T17:31:56.651Z,1.05
2022-11-01T17:34:26.490Z,0.80
2022-11-01T17:36:57.241Z,1.40
2022-11-01T17:39:28.007Z,1.02
2022-11-01T17:41:56.640Z,0.70
2022-11-01T17:44:24.592Z,1.00
2022-11-01T17:46:53.822Z,1.40
2022-11-01T17:49:24.750Z,1.05
2022-11-01T17:51:55.066Z,0.93
2022-11-01T17:54:23.896Z,0.95
2022-11-01T17:56:52.477Z,0.93
2022-11-01T17:59:21.508Z,1.20
2022-11-01T18:01:49.501Z,1.10
2022-11-01T18:04:19.887Z,1.13
2022-11-01T18:06:48.211Z,0.90
2022-11-01T18:09:21.665Z,1.20
2022-11-01T18:11:54.747Z,1.20
2022-11-01T18:14:34.937Z,0.88
2022-11-01T18:17:19.358Z,1.20
2022-11-01T18:19:55.432Z,0.85
2022-11-01T18:22:32.776Z,0.90
2022-11-01T18:25:10.776Z,1.10
2022-11-01T18:27:39.119Z,0.80
2022-11-01T18:30:15.693Z,0.70
2022-11-01T18:32:48.625Z,0.90
2022-11-01T18:35:30.559Z,0.85
2022-11-01T18:38:25.923Z,0.85
2022-11-01T18:40:59.823Z,0.70
2022-11-01T18:43:29.825Z,1.00
2022-11-01T18:46:23.304Z,0.80
2022-11-01T18:48:47.922Z,0.80
2022-11-01T18:51:23.810Z,0.82
2022-11-01T18:53:55.892Z,0.55
2022-11-01T18:56:26.206Z,0.82
2022-11-01T18:58:56.319Z,0.88
2022-11-01T19:01:32.131Z,0.80
2022-11-01T19:04:03.066Z,0.80
2022-11-01T19:06:34.440Z,0.73
2022-11-01T19:09:14.262Z,0.60
2022-11-01T19:11:43.497Z,0.90
2022-11-01T19:14:16.628Z,0.80
2022-11-01T19:16:46.253Z,0.43
2022-11-01T19:19:17.665Z,0.85
2022-11-01T19:21:49.679Z,1.27
2022-11-01T19:24:31.860Z,1.10
2022-11-01T19:27:01.675Z,0.95
2022-11-01T19:29:34.995Z,0.80
2022-11-01T19:32:05.696Z,0.98
2022-11-01T19:34:37.539Z,0.88
2022-11-01T19:37:21.296Z,1.00
2022-11-01T19:39:49.426Z,1.35
2022-11-01T19:42:26.818Z,1.30
2022-11-01T19:44:59.494Z,0.98
2022-11-01T19:47:38.355Z,0.93
2022-11-01T19:50:23.270Z,0.80
2022-11-01T19:52:53.997Z,0.90
2022-11-01T19:55:36.531Z,0.90
2022-11-01T19:58:24.809Z,1.50
2022-11-01T20:01:03.357Z,1.35
2022-11-01T20:03:39.391Z,0.90
2022-11-01T20:06:14.892Z,1.38
2022-11-01T20:08:46.227Z,1.10
2022-11-01T20:11:14.779Z,1.40
2022-11-01T20:13:43.215Z,1.13
2022-11-01T20:16:11.235Z,1.33
2022-11-01T20:18:39.381Z,1.25
2022-11-01T20:21:08.324Z,1.13
2022-11-01T20:23:36.507Z,1.23
2022-11-01T20:26:07.075Z,1.25
2022-11-01T20:28:35.542Z,1.33
2022-11-01T20:31:05.232Z,1.00
2022-11-01T20:33:34.555Z,1.10
2022-11-01T20:36:08.288Z,1.10
2022-11-01T20:38:39.796Z,1.20
2022-11-01T20:41:09.166Z,1.35
2022-11-01T20:43:37.508Z,1.00
2022-11-01T20:46:06.001Z,1.02
2022-11-01T20:48:34.480Z,1.00
2022-11-01T20:51:02.414Z,1.13
2022-11-01T20:53:31.294Z,1.50
2022-11-01T20:55:59.213Z,0.95
2022-11-01T20:58:29.103Z,1.20
2022-11-01T21:00:58.077Z,1.10
2022-11-01T21:03:28.712Z,1.00
2022-11-01T21:05:57.500Z,0.88
2022-11-01T21:08:28.014Z,1.17
2022-11-01T21:11:00.079Z,0.82
2022-11-01T21:13:31.984Z,1.27
2022-11-01T21:16:02.294Z,1.10
2022-11-01T21:18:36.109Z,0.95
2022-11-01T21:21:35.895Z,1.13
2022-11-01T21:24:26.931Z,1.10
2022-11-01T21:27:02.027Z,0.90
2022-11-01T21:29:31.367Z,1.23
2022-11-01T21:31:59.280Z,1.20
2022-11-01T21:34:31.214Z,0.90
2022-11-01T21:37:01.088Z,1.30
2022-11-01T21:39:33.246Z,1.38
2022-11-01T21:42:04.633Z,1.00
2022-11-01T21:44:40.127Z,1.73
2022-11-01T21:47:19.231Z,1.10
2022-11-01T21:49:48.571Z,1.38
2022-11-01T21:52:16.582Z,1.35
2022-11-01T21:54:46.162Z,1.42
2022-11-01T21:57:15.767Z,1.43
2022-11-01T21:59:45.395Z,1.00
2022-11-01T22:02:16.232Z,0.95
2022-11-01T22:04:45.080Z,1.50
2022-11-01T22:07:13.039Z,1.17
2022-11-01T22:12:11.216Z,0.98
2022-11-01T22:14:40.289Z,1.10
2022-11-01T22:17:09.593Z,0.93
2022-11-01T22:19:38.153Z,1.40
2022-11-01T22:22:06.528Z,1.77
2022-11-01T22:24:34.488Z,1.48
2022-11-01T22:27:03.136Z,1.10
2022-11-01T22:29:31.993Z,1.30
2022-11-01T22:31:59.816Z,1.17
2022-11-01T22:34:29.611Z,1.23
2022-11-01T22:36:58.684Z,1.30
2022-11-01T22:39:28.558Z,1.33
2022-11-01T22:41:57.080Z,1.20
2022-11-01T22:44:28.027Z,1.00
2022-11-01T22:46:58.963Z,1.13
2022-11-01T22:49:32.657Z,1.20
2022-11-01T22:52:04.270Z,1.40
2022-11-01T22:54:40.594Z,1.35
2022-11-01T22:57:19.350Z,1.20
2022-11-01T22:59:52.594Z,1.13
2022-11-01T23:02:28.388Z,1.02
2022-11-01T23:05:17.318Z,1.98
2022-11-01T23:07:47.657Z,1.85
2022-11-01T23:10:31.252Z,1.20
2022-11-01T23:13:21.010Z,1.40
2022-11-01T23:15:52.311Z,1.70
2022-11-01T23:18:23.313Z,1.30
2022-11-01T23:20:56.875Z,0.85
2022-11-01T23:23:25.981Z,1.13
2022-11-01T23:25:55.370Z,0.97
2022-11-01T23:30:53.748Z,1.00
2022-11-01T23:33:24.801Z,1.30
2022-11-01T23:35:56.633Z,1.30
2022-11-01T23:38:36.170Z,1.40
2022-11-01T23:41:04.590Z,1.15
2022-11-01T23:43:37.244Z,1.10
2022-11-01T23:46:05.968Z,1.30
2022-11-01T23:48:38.908Z,0.73
2022-11-01T23:51:13.523Z,1.40
2022-11-01T23:53:43.069Z,1.08
2022-11-01T23:56:15.701Z,1.17
2022-11-01T23:58:44.479Z,0.90
